createdAt,value
2022-11-06T00:00:23.126Z,7.33
2022-11-06T00:02:49.459Z,8.00
2022-11-06T00:05:34.372Z,7.43
2022-11-06T00:08:00.732Z,7.20
2022-11-06T00:10:29.423Z,7.60
2022-11-06T00:12:55.802Z,7.23
2022-11-06T00:15:22.080Z,8.17
2022-11-06T00:17:50.504Z,7.27
2022-11-06T00:20:17.161Z,6.60
2022-11-06T00:22:43.594Z,6.90
2022-11-06T00:25:10.507Z,7.03
2022-11-06T00:27:38.852Z,6.70
2022-11-06T00:30:06.492Z,6.57
2022-11-06T00:32:32.906Z,7.00
2022-11-06T00:34:59.199Z,6.70
2022-11-06T00:37:25.528Z,6.73
2022-11-06T00:39:51.839Z,6.20
2022-11-06T00:42:18.171Z,6.70
2022-11-06T00:44:44.472Z,7.40
2022-11-06T00:47:11.799Z,6.60
2022-11-06T00:49:38.883Z,6.50
2022-11-06T00:52:05.276Z,6.93
2022-11-06T00:54:31.638Z,6.40
2022-11-06T00:56:57.946Z,6.67
2022-11-06T00:59:24.295Z,6.77
2022-11-06T01:01:51.050Z,6.57
2022-11-06T01:04:21.083Z,6.80
2022-11-06T01:06:49.664Z,6.67
2022-11-06T01:09:18.639Z,6.43
2022-11-06T01:12:11.826Z,6.43
2022-11-06T01:14:33.822Z,6.10
2022-11-06T01:17:00.111Z,6.63
2022-11-06T01:19:26.448Z,6.70
2022-11-06T01:21:53.751Z,6.40
2022-11-06T01:24:24.131Z,6.30
2022-11-06T01:27:19.942Z,6.43
2022-11-06T01:29:37.819Z,6.50
2022-11-06T01:32:04.596Z,7.13
2022-11-06T01:34:30.912Z,5.50
2022-11-06T01:36:57.180Z,6.33
2022-11-06T01:39:23.512Z,5.90
2022-11-06T01:41:51.697Z,6.50
2022-11-06T01:44:32.996Z,5.93
2022-11-06T01:47:00.688Z,6.00
2022-11-06T01:49:30.630Z,6.40
2022-11-06T01:52:02.031Z,6.00
2022-11-06T01:54:30.889Z,6.40
2022-11-06T01:56:59.967Z,6.20
2022-11-06T01:59:29.280Z,6.20
2022-11-06T02:01:55.919Z,6.20
2022-11-06T02:04:25.203Z,6.03
2022-11-06T02:06:51.897Z,6.20
2022-11-06T02:09:18.959Z,6.37
2022-11-06T02:11:58.735Z,6.33
2022-11-06T02:14:36.610Z,5.83
2022-11-06T02:17:13.310Z,5.30
2022-11-06T02:20:14.993Z,5.80
2022-11-06T02:23:03.048Z,6.20
2022-11-06T02:25:43.483Z,6.20
2022-11-06T02:28:20.598Z,5.77
2022-11-06T02:30:48.637Z,5.53
2022-11-06T02:33:34.623Z,5.87
2022-11-06T02:36:14.512Z,6.00
2022-11-06T02:38:45.110Z,5.50
2022-11-06T02:41:20.500Z,5.67
2022-11-06T02:43:51.283Z,5.83
2022-11-06T02:46:20.238Z,5.77
2022-11-06T02:48:56.890Z,5.57
2022-11-06T02:51:28.563Z,5.60
2022-11-06T02:53:59.399Z,6.00
2022-11-06T02:56:31.102Z,5.63
2022-11-06T02:59:14.762Z,6.00
2022-11-06T03:01:52.460Z,5.63
2022-11-06T03:04:25.436Z,5.80
2022-11-06T03:06:59.167Z,5.33
2022-11-06T03:09:31.300Z,5.47
2022-11-06T03:12:01.668Z,5.17
2022-11-06T03:14:50.478Z,5.20
2022-11-06T03:17:43.707Z,5.20
2022-11-06T03:20:20.995Z,5.13
2022-11-06T03:22:57.431Z,4.90
2022-11-06T03:25:29.694Z,5.10
2022-11-06T03:28:10.209Z,5.40
2022-11-06T03:30:42.918Z,4.93
2022-11-06T03:33:34.063Z,5.20
2022-11-06T03:36:10.840Z,5.03
2022-11-06T03:38:45.378Z,5.20
2022-11-06T03:41:18.187Z,4.83
2022-11-06T03:43:48.355Z,5.10
2022-11-06T03:46:20.687Z,4.90
2022-11-06T03:48:51.205Z,5.20
2022-11-06T03:51:23.210Z,4.70
2022-11-06T03:53:52.238Z,5.27
2022-11-06T03:56:25.412Z,5.10
2022-11-06T03:58:53.830Z,4.83
2022-11-06T04:01:32.189Z,5.13
2022-11-06T04:04:13.163Z,5.00
2022-11-06T04:06:46.672Z,4.70
2022-11-06T04:09:34.058Z,4.60
2022-11-06T04:12:22.779Z,4.47
2022-11-06T04:14:52.724Z,4.87
2022-11-06T04:17:20.057Z,5.20
2022-11-06T04:19:51.135Z,4.57
2022-11-06T04:22:44.420Z,4.80
2022-11-06T04:25:53.454Z,5.20
2022-11-06T04:28:32.316Z,4.47
2022-11-06T04:31:01.459Z,4.70
2022-11-06T04:33:38.844Z,4.33
2022-11-06T04:36:16.184Z,4.53
2022-11-06T04:38:51.242Z,4.27
2022-11-06T04:41:47.067Z,4.30
2022-11-06T04:44:33.095Z,4.20
2022-11-06T04:47:03.254Z,4.37
2022-11-06T04:49:32.842Z,4.83
2022-11-06T04:52:02.463Z,4.90
2022-11-06T04:54:29.213Z,5.37
2022-11-06T04:57:03.530Z,4.90
2022-11-06T04:59:34.885Z,5.17
2022-11-06T05:02:01.499Z,4.73
2022-11-06T05:04:28.114Z,4.60
2022-11-06T05:06:54.557Z,4.43
2022-11-06T05:09:20.853Z,4.43
2022-11-06T05:11:47.155Z,4.77
2022-11-06T05:14:13.492Z,4.50
2022-11-06T05:16:39.930Z,4.50
2022-11-06T05:19:06.292Z,4.80
2022-11-06T05:21:51.344Z,4.97
2022-11-06T05:24:17.748Z,4.37
2022-11-06T05:26:44.374Z,4.40
2022-11-06T05:29:11.780Z,4.40
2022-11-06T05:31:38.248Z,4.73
2022-11-06T05:34:04.612Z,4.60
2022-11-06T05:36:30.890Z,3.93
2022-11-06T05:38:57.215Z,4.00
2022-11-06T05:41:23.613Z,4.30
2022-11-06T05:43:50.129Z,4.33
2022-11-06T05:46:42.853Z,4.30
2022-11-06T05:49:02.930Z,4.47
2022-11-06T05:51:29.247Z,4.50
2022-11-06T05:53:55.636Z,4.50
2022-11-06T05:56:21.942Z,3.37
2022-11-06T05:58:48.259Z,4.63
2022-11-06T06:01:14.973Z,4.40
2022-11-06T06:03:41.331Z,4.27
2022-11-06T06:06:07.754Z,4.10
2022-11-06T06:08:34.044Z,4.20
2022-11-06T06:11:00.408Z,3.80
2022-11-06T06:13:26.699Z,4.40
2022-11-06T06:15:52.980Z,4.63
2022-11-06T06:18:19.302Z,5.20
2022-11-06T06:20:45.611Z,4.20
2022-11-06T06:23:11.901Z,4.50
2022-11-06T06:25:38.187Z,4.10
2022-11-06T06:28:04.453Z,4.10
2022-11-06T06:30:30.803Z,4.63
2022-11-06T06:32:57.144Z,4.43
2022-11-06T06:35:23.486Z,4.37
2022-11-06T06:37:53.979Z,4.50
2022-11-06T06:40:21.312Z,3.83
2022-11-06T06:42:47.652Z,3.80
2022-11-06T06:45:14.110Z,3.90
2022-11-06T06:47:40.463Z,3.50
2022-11-06T06:50:07.494Z,3.37
2022-11-06T06:52:34.201Z,3.27
2022-11-06T06:55:00.507Z,3.37
2022-11-06T06:57:26.834Z,3.30
2022-11-06T06:59:53.127Z,3.60
2022-11-06T07:02:19.600Z,3.60
2022-11-06T07:04:46.135Z,3.60
2022-11-06T07:07:12.502Z,3.03
2022-11-06T07:09:38.873Z,4.13
2022-11-06T07:12:05.236Z,3.20
2022-11-06T07:14:31.543Z,4.10
2022-11-06T07:16:57.872Z,3.57
2022-11-06T07:19:24.167Z,3.90
2022-11-06T07:21:53.334Z,3.63
2022-11-06T07:24:20.167Z,3.60
2022-11-06T07:26:46.462Z,4.00
2022-11-06T07:29:12.859Z,4.67
2022-11-06T07:31:39.139Z,3.73
2022-11-06T07:34:05.430Z,5.30
2022-11-06T07:36:34.463Z,4.00
2022-11-06T07:39:00.753Z,4.00
2022-11-06T07:41:27.069Z,3.67
2022-11-06T07:43:53.419Z,3.80
2022-11-06T07:46:19.736Z,4.20
2022-11-06T07:48:46.023Z,3.50
2022-11-06T07:51:12.439Z,4.20
2022-11-06T07:53:39.351Z,3.40
2022-11-06T07:56:06.260Z,4.57
2022-11-06T07:58:33.541Z,4.60
2022-11-06T08:01:00.156Z,4.37
2022-11-06T08:03:26.843Z,5.20
2022-11-06T08:05:53.125Z,4.20
2022-11-06T08:08:20.325Z,4.57
2022-11-06T08:10:47.643Z,4.30
2022-11-06T08:13:16.021Z,4.73
2022-11-06T08:15:42.975Z,4.57
2022-11-06T08:18:10.637Z,4.17
2022-11-06T08:20:38.722Z,4.40
2022-11-06T08:23:07.447Z,4.20
2022-11-06T08:25:34.614Z,4.77
2022-11-06T08:28:02.558Z,3.60
2022-11-06T08:30:30.443Z,4.30
2022-11-06T08:33:02.034Z,4.37
2022-11-06T08:35:28.695Z,3.90
2022-11-06T08:37:55.284Z,4.20
2022-11-06T08:40:25.316Z,3.70
2022-11-06T08:42:58.998Z,4.63
2022-11-06T08:45:25.326Z,4.43
2022-11-06T08:47:51.799Z,4.30
2022-11-06T08:50:18.262Z,4.23
2022-11-06T08:52:44.569Z,3.83
2022-11-06T08:55:10.874Z,4.50
2022-11-06T08:57:37.199Z,4.20
2022-11-06T09:00:04.612Z,4.33
2022-11-06T09:02:31.590Z,3.67
2022-11-06T09:04:57.904Z,3.53
2022-11-06T09:07:24.207Z,3.67
2022-11-06T09:09:50.502Z,3.70
2022-11-06T09:12:16.838Z,3.83
2022-11-06T09:14:43.172Z,4.07
2022-11-06T09:17:09.481Z,4.07
2022-11-06T09:19:35.764Z,3.33
2022-11-06T09:22:02.041Z,4.30
2022-11-06T09:24:57.164Z,4.33
2022-11-06T09:27:15.259Z,3.40
2022-11-06T09:29:43.868Z,4.83
2022-11-06T09:32:11.213Z,4.30
2022-11-06T09:34:37.631Z,4.40
2022-11-06T09:37:04.127Z,4.33
2022-11-06T09:39:30.426Z,4.30
2022-11-06T09:42:06.271Z,4.57
2022-11-06T09:44:58.566Z,4.40
2022-11-06T09:47:32.584Z,4.23
2022-11-06T09:49:59.079Z,3.67
2022-11-06T09:52:34.132Z,3.40
2022-11-06T09:55:13.203Z,3.90
2022-11-06T09:57:45.950Z,4.20
2022-11-06T10:00:15.086Z,3.93
2022-11-06T10:02:57.758Z,3.43
2022-11-06T10:05:27.620Z,3.80
2022-11-06T10:08:03.671Z,4.17
2022-11-06T10:10:39.564Z,3.80
2022-11-06T10:13:38.595Z,4.73
2022-11-06T10:16:10.928Z,4.00
2022-11-06T10:19:00.485Z,3.90
2022-11-06T10:22:08.356Z,3.60
2022-11-06T10:25:01.735Z,3.70
2022-11-06T10:27:36.831Z,3.63
2022-11-06T10:30:11.620Z,3.83
2022-11-06T10:33:01.226Z,5.10
2022-11-06T10:35:37.133Z,4.00
2022-11-06T10:38:13.716Z,3.77
2022-11-06T10:40:44.035Z,3.93
2022-11-06T10:43:20.717Z,4.13
2022-11-06T10:45:56.633Z,4.63
2022-11-06T10:48:31.752Z,3.80
2022-11-06T10:51:22.258Z,3.60
2022-11-06T10:54:22.670Z,4.20
2022-11-06T10:57:39.938Z,3.70
2022-11-06T11:00:12.216Z,3.90
2022-11-06T11:02:57.931Z,4.47
2022-11-06T11:05:26.567Z,5.07
2022-11-06T11:07:54.963Z,5.23
2022-11-06T11:10:24.268Z,4.20
2022-11-06T11:12:53.383Z,4.80
2022-11-06T11:15:22.184Z,4.30
2022-11-06T11:18:18.188Z,4.10
2022-11-06T11:20:47.473Z,4.20
2022-11-06T11:23:25.688Z,4.37
2022-11-06T11:25:54.529Z,4.60
2022-11-06T11:28:30.377Z,4.23
2022-11-06T11:31:07.399Z,4.73
2022-11-06T11:33:35.209Z,4.00
2022-11-06T11:36:03.220Z,3.87
2022-11-06T11:38:30.168Z,4.07
2022-11-06T11:41:08.894Z,3.90
2022-11-06T11:43:35.562Z,4.07
2022-11-06T11:46:04.654Z,4.10
2022-11-06T11:48:52.389Z,3.50
2022-11-06T11:51:42.758Z,3.87
2022-11-06T11:54:12.476Z,3.50
2022-11-06T11:57:10.289Z,4.03
2022-11-06T11:59:56.373Z,4.00
2022-11-06T12:02:31.062Z,4.40
2022-11-06T12:05:05.600Z,3.87
2022-11-06T12:07:35.476Z,3.67
2022-11-06T12:10:13.051Z,3.97
2022-11-06T12:12:39.419Z,4.10
2022-11-06T12:15:08.712Z,3.50
2022-11-06T12:17:40.544Z,3.77
2022-11-06T12:20:14.601Z,3.67
2022-11-06T12:22:45.534Z,3.23
2022-11-06T12:25:19.351Z,3.80
2022-11-06T12:27:51.102Z,3.70
2022-11-06T12:30:19.440Z,3.40
2022-11-06T12:33:11.361Z,3.30
2022-11-06T12:35:42.095Z,3.60
2022-11-06T12:38:12.364Z,3.73
2022-11-06T12:40:40.939Z,4.03
2022-11-06T12:43:22.203Z,3.40
2022-11-06T12:46:07.103Z,3.57
2022-11-06T12:48:47.882Z,3.50
2022-11-06T12:51:31.340Z,2.80
2022-11-06T12:54:37.905Z,2.90
2022-11-06T12:57:31.622Z,3.13
2022-11-06T13:00:00.829Z,3.33
2022-11-06T13:02:52.093Z,3.07
2022-11-06T13:05:27.882Z,3.07
2022-11-06T13:08:12.987Z,3.00
2022-11-06T13:11:04.158Z,2.80
2022-11-06T13:13:49.420Z,2.37
2022-11-06T13:16:51.163Z,2.50
2022-11-06T13:19:55.362Z,2.50
2022-11-06T13:22:49.391Z,2.60
2022-11-06T13:25:38.182Z,2.20
2022-11-06T13:28:23.687Z,2.10
